sensor_id;sensor_type;location;lat;lon;timestamp;P1;durP1;ratioP1;P2;durP2;ratioP2
22024;SDS011;11176;51.448;6.650;2023-04-25T00:00:51;14.70;;;5.50;;
22024;SDS011;11176;51.448;6.650;2023-04-25T00:03:18;13.98;;;5.90;;
22024;SDS011;11176;51.448;6.650;2023-04-25T00:05:45;12.85;;;5.38;;
22024;SDS011;11176;51.448;6.650;2023-04-25T00:08:12;13.90;;;4.80;;
22024;SDS011;11176;51.448;6.650;2023-04-25T00:10:39;16.23;;;5.93;;
22024;SDS011;11176;51.448;6.650;2023-04-25T00:13:05;19.13;;;6.00;;
22024;SDS011;11176;51.448;6.650;2023-04-25T00:15:32;17.15;;;6.05;;
22024;SDS011;11176;51.448;6.650;2023-04-25T00:17:58;14.52;;;5.55;;
22024;SDS011;11176;51.448;6.650;2023-04-25T00:20:25;13.80;;;5.43;;
22024;SDS011;11176;51.448;6.650;2023-04-25T00:22:51;15.82;;;5.88;;
22024;SDS011;11176;51.448;6.650;2023-04-25T00:25:19;12.77;;;5.80;;
22024;SDS011;11176;51.448;6.650;2023-04-25T00:27:46;15.50;;;6.32;;
22024;SDS011;11176;51.448;6.650;2023-04-25T00:30:12;17.35;;;6.10;;
22024;SDS011;11176;51.448;6.650;2023-04-25T00:32:40;14.95;;;6.35;;
22024;SDS011;11176;51.448;6.650;2023-04-25T00:35:06;17.13;;;6.03;;
22024;SDS011;11176;51.448;6.650;2023-04-25T00:37:33;15.57;;;6.32;;
22024;SDS011;11176;51.448;6.650;2023-04-25T00:40:00;13.43;;;5.75;;
22024;SDS011;11176;51.448;6.650;2023-04-25T00:42:26;15.18;;;5.65;;
22024;SDS011;11176;51.448;6.650;2023-04-25T00:44:53;13.50;;;5.53;;
22024;SDS011;11176;51.448;6.650;2023-04-25T00:47:19;15.27;;;6.05;;
22024;SDS011;11176;51.448;6.650;2023-04-25T00:49:46;12.77;;;5.55;;
22024;SDS011;11176;51.448;6.650;2023-04-25T00:52:13;15.00;;;6.25;;
22024;SDS011;11176;51.448;6.650;2023-04-25T00:54:39;13.95;;;5.32;;
22024;SDS011;11176;51.448;6.650;2023-04-25T00:57:06;12.30;;;5.78;;
22024;SDS011;11176;51.448;6.650;2023-04-25T00:59:33;12.52;;;5.90;;
22024;SDS011;11176;51.448;6.650;2023-04-25T01:01:59;13.77;;;6.03;;
22024;SDS011;11176;51.448;6.650;2023-04-25T01:04:27;14.45;;;5.63;;
22024;SDS011;11176;51.448;6.650;2023-04-25T01:06:55;11.82;;;5.40;;
22024;SDS011;11176;51.448;6.650;2023-04-25T01:09:22;17.88;;;5.85;;
22024;SDS011;11176;51.448;6.650;2023-04-25T01:11:48;14.98;;;6.07;;
22024;SDS011;11176;51.448;6.650;2023-04-25T01:14:15;17.38;;;5.65;;
22024;SDS011;11176;51.448;6.650;2023-04-25T01:16:42;13.55;;;5.70;;
22024;SDS011;11176;51.448;6.650;2023-04-25T01:19:09;11.02;;;6.30;;
22024;SDS011;11176;51.448;6.650;2023-04-25T01:21:39;14.20;;;5.97;;
22024;SDS011;11176;51.448;6.650;2023-04-25T01:24:06;14.27;;;6.32;;
22024;SDS011;11176;51.448;6.650;2023-04-25T01:26:33;15.52;;;5.80;;
22024;SDS011;11176;51.448;6.650;2023-04-25T01:29:01;15.45;;;6.28;;
22024;SDS011;11176;51.448;6.650;2023-04-25T01:31:28;15.25;;;6.10;;
22024;SDS011;11176;51.448;6.650;2023-04-25T01:33:55;16.40;;;5.45;;
22024;SDS011;11176;51.448;6.650;2023-04-25T01:36:21;15.25;;;5.95;;
22024;SDS011;11176;51.448;6.650;2023-04-25T01:38:48;13.55;;;5.32;;
22024;SDS011;11176;51.448;6.650;2023-04-25T01:41:15;16.40;;;5.97;;
22024;SDS011;11176;51.448;6.650;2023-04-25T01:43:44;13.27;;;5.80;;
22024;SDS011;11176;51.448;6.650;2023-04-25T01:46:11;12.77;;;5.68;;
22024;SDS011;11176;51.448;6.650;2023-04-25T01:48:38;15.40;;;6.47;;
22024;SDS011;11176;51.448;6.650;2023-04-25T01:51:05;10.75;;;5.82;;
22024;SDS011;11176;51.448;6.650;2023-04-25T01:53:32;14.68;;;5.82;;
22024;SDS011;11176;51.448;6.650;2023-04-25T01:56:01;18.45;;;6.28;;
22024;SDS011;11176;51.448;6.650;2023-04-25T01:58:32;13.70;;;5.88;;
22024;SDS011;11176;51.448;6.650;2023-04-25T02:01:01;14.52;;;5.65;;
22024;SDS011;11176;51.448;6.650;2023-04-25T02:06:05;14.52;;;5.15;;
22024;SDS011;11176;51.448;6.650;2023-04-25T02:08:35;17.83;;;5.93;;
22024;SDS011;11176;51.448;6.650;2023-04-25T02:11:03;16.27;;;5.32;;
22024;SDS011;11176;51.448;6.650;2023-04-25T02:16:14;16.95;;;5.90;;
22024;SDS011;11176;51.448;6.650;2023-04-25T02:18:41;13.93;;;5.50;;
22024;SDS011;11176;51.448;6.650;2023-04-25T02:21:07;13.88;;;5.38;;
22024;SDS011;11176;51.448;6.650;2023-04-25T02:23:34;13.50;;;5.10;;
22024;SDS011;11176;51.448;6.650;2023-04-25T02:26:01;13.15;;;5.32;;
22024;SDS011;11176;51.448;6.650;2023-04-25T02:28:29;12.60;;;5.63;;
22024;SDS011;11176;51.448;6.650;2023-04-25T02:30:55;16.52;;;5.63;;
22024;SDS011;11176;51.448;6.650;2023-04-25T02:33:23;13.38;;;5.07;;
22024;SDS011;11176;51.448;6.650;2023-04-25T02:35:49;11.90;;;4.60;;
22024;SDS011;11176;51.448;6.650;2023-04-25T02:38:16;12.90;;;5.18;;
22024;SDS011;11176;51.448;6.650;2023-04-25T02:40:42;14.25;;;4.70;;
22024;SDS011;11176;51.448;6.650;2023-04-25T02:43:09;14.35;;;5.35;;
22024;SDS011;11176;51.448;6.650;2023-04-25T02:45:35;16.67;;;5.75;;
22024;SDS011;11176;51.448;6.650;2023-04-25T02:48:02;11.73;;;5.05;;
22024;SDS011;11176;51.448;6.650;2023-04-25T02:50:31;11.38;;;5.35;;
22024;SDS011;11176;51.448;6.650;2023-04-25T02:52:58;17.95;;;5.57;;
22024;SDS011;11176;51.448;6.650;2023-04-25T02:55:30;15.70;;;6.13;;
22024;SDS011;11176;51.448;6.650;2023-04-25T02:57:59;20.50;;;5.68;;
22024;SDS011;11176;51.448;6.650;2023-04-25T03:00:46;13.30;;;5.65;;
22024;SDS011;11176;51.448;6.650;2023-04-25T03:03:14;15.70;;;5.38;;
22024;SDS011;11176;51.448;6.650;2023-04-25T03:05:44;15.18;;;5.38;;
22024;SDS011;11176;51.448;6.650;2023-04-25T03:08:13;13.13;;;5.03;;
22024;SDS011;11176;51.448;6.650;2023-04-25T03:10:39;19.08;;;5.35;;
22024;SDS011;11176;51.448;6.650;2023-04-25T03:13:08;10.75;;;4.93;;
22024;SDS011;11176;51.448;6.650;2023-04-25T03:15:35;14.48;;;5.40;;
22024;SDS011;11176;51.448;6.650;2023-04-25T03:18:02;15.98;;;5.88;;
22024;SDS011;11176;51.448;6.650;2023-04-25T03:20:29;18.00;;;5.70;;
22024;SDS011;11176;51.448;6.650;2023-04-25T03:22:56;12.32;;;5.15;;
22024;SDS011;11176;51.448;6.650;2023-04-25T03:25:23;15.52;;;6.45;;
22024;SDS011;11176;51.448;6.650;2023-04-25T03:27:49;20.42;;;6.25;;
22024;SDS011;11176;51.448;6.650;2023-04-25T03:30:16;15.25;;;5.00;;
22024;SDS011;11176;51.448;6.650;2023-04-25T03:32:43;20.92;;;6.15;;
22024;SDS011;11176;51.448;6.650;2023-04-25T03:35:14;13.95;;;6.20;;
22024;SDS011;11176;51.448;6.650;2023-04-25T03:37:41;13.15;;;5.32;;
22024;SDS011;11176;51.448;6.650;2023-04-25T03:40:15;16.85;;;6.35;;
22024;SDS011;11176;51.448;6.650;2023-04-25T03:43:11;14.90;;;5.85;;
22024;SDS011;11176;51.448;6.650;2023-04-25T03:45:42;18.77;;;6.32;;
22024;SDS011;11176;51.448;6.650;2023-04-25T03:48:08;17.65;;;5.65;;
22024;SDS011;11176;51.448;6.650;2023-04-25T03:50:35;16.42;;;4.90;;
22024;SDS011;11176;51.448;6.650;2023-04-25T03:53:02;11.30;;;5.20;;
22024;SDS011;11176;51.448;6.650;2023-04-25T03:55:38;15.77;;;5.40;;
22024;SDS011;11176;51.448;6.650;2023-04-25T03:58:08;17.65;;;6.07;;
22024;SDS011;11176;51.448;6.650;2023-04-25T04:00:36;17.50;;;5.32;;
22024;SDS011;11176;51.448;6.650;2023-04-25T04:03:03;17.13;;;6.20;;
22024;SDS011;11176;51.448;6.650;2023-04-25T04:05:30;17.10;;;6.35;;
22024;SDS011;11176;51.448;6.650;2023-04-25T04:07:57;17.25;;;5.97;;
22024;SDS011;11176;51.448;6.650;2023-04-25T04:10:24;16.92;;;6.22;;
22024;SDS011;11176;51.448;6.650;2023-04-25T04:12:54;13.35;;;5.82;;
22024;SDS011;11176;51.448;6.650;2023-04-25T04:15:20;10.77;;;5.28;;
22024;SDS011;11176;51.448;6.650;2023-04-25T04:17:48;18.17;;;6.28;;
22024;SDS011;11176;51.448;6.650;2023-04-25T04:20:16;15.63;;;6.53;;
22024;SDS011;11176;51.448;6.650;2023-04-25T04:22:43;19.75;;;5.70;;
22024;SDS011;11176;51.448;6.650;2023-04-25T04:25:12;16.30;;;6.20;;
22024;SDS011;11176;51.448;6.650;2023-04-25T04:28:08;16.77;;;5.82;;
22024;SDS011;11176;51.448;6.650;2023-04-25T04:30:49;17.80;;;5.85;;
22024;SDS011;11176;51.448;6.650;2023-04-25T04:33:17;19.90;;;6.38;;
22024;SDS011;11176;51.448;6.650;2023-04-25T04:35:50;19.23;;;6.28;;
22024;SDS011;11176;51.448;6.650;2023-04-25T04:38:18;14.25;;;5.78;;
22024;SDS011;11176;51.448;6.650;2023-04-25T04:40:45;17.73;;;6.25;;
22024;SDS011;11176;51.448;6.650;2023-04-25T04:43:22;17.60;;;6.38;;
22024;SDS011;11176;51.448;6.650;2023-04-25T04:46:06;18.20;;;7.05;;
22024;SDS011;11176;51.448;6.650;2023-04-25T04:48:52;18.58;;;6.22;;
22024;SDS011;11176;51.448;6.650;2023-04-25T04:51:46;20.33;;;6.70;;
22024;SDS011;11176;51.448;6.650;2023-04-25T04:54:36;21.45;;;6.05;;
22024;SDS011;11176;51.448;6.650;2023-04-25T04:57:32;19.13;;;6.03;;
22024;SDS011;11176;51.448;6.650;2023-04-25T05:00:18;21.42;;;5.95;;
22024;SDS011;11176;51.448;6.650;2023-04-25T05:02:54;21.90;;;6.38;;
22024;SDS011;11176;51.448;6.650;2023-04-25T05:05:39;15.13;;;6.47;;
22024;SDS011;11176;51.448;6.650;2023-04-25T05:08:34;21.55;;;7.00;;
22024;SDS011;11176;51.448;6.650;2023-04-25T05:11:21;26.20;;;7.00;;
22024;SDS011;11176;51.448;6.650;2023-04-25T05:13:56;21.38;;;6.25;;
22024;SDS011;11176;51.448;6.650;2023-04-25T05:16:41;21.83;;;6.35;;
22024;SDS011;11176;51.448;6.650;2023-04-25T05:19:27;23.52;;;6.97;;
22024;SDS011;11176;51.448;6.650;2023-04-25T05:22:11;18.88;;;6.13;;
22024;SDS011;11176;51.448;6.650;2023-04-25T05:24:56;17.20;;;6.72;;
22024;SDS011;11176;51.448;6.650;2023-04-25T05:27:43;19.92;;;6.88;;
22024;SDS011;11176;51.448;6.650;2023-04-25T05:30:26;14.52;;;6.05;;
22024;SDS011;11176;51.448;6.650;2023-04-25T05:32:58;16.23;;;6.15;;
22024;SDS011;11176;51.448;6.650;2023-04-25T05:35:26;17.02;;;6.57;;
22024;SDS011;11176;51.448;6.650;2023-04-25T05:37:52;15.77;;;6.10;;
22024;SDS011;11176;51.448;6.650;2023-04-25T05:40:29;20.33;;;5.82;;
22024;SDS011;11176;51.448;6.650;2023-04-25T05:43:10;18.83;;;6.22;;
22024;SDS011;11176;51.448;6.650;2023-04-25T05:45:53;16.77;;;5.80;;
22024;SDS011;11176;51.448;6.650;2023-04-25T05:48:31;17.35;;;5.53;;
22024;SDS011;11176;51.448;6.650;2023-04-25T05:51:08;13.25;;;5.53;;
22024;SDS011;11176;51.448;6.650;2023-04-25T05:53:54;17.65;;;5.47;;
22024;SDS011;11176;51.448;6.650;2023-04-25T05:56:21;14.88;;;5.85;;
22024;SDS011;11176;51.448;6.650;2023-04-25T05:58:50;17.63;;;5.93;;
22024;SDS011;11176;51.448;6.650;2023-04-25T06:01:17;11.35;;;5.25;;
22024;SDS011;11176;51.448;6.650;2023-04-25T06:03:43;13.95;;;5.47;;
22024;SDS011;11176;51.448;6.650;2023-04-25T06:06:11;15.13;;;5.10;;
22024;SDS011;11176;51.448;6.650;2023-04-25T06:08:38;13.77;;;5.30;;
22024;SDS011;11176;51.448;6.650;2023-04-25T06:11:05;18.92;;;5.95;;
22024;SDS011;11176;51.448;6.650;2023-04-25T06:13:32;20.33;;;5.18;;
22024;SDS011;11176;51.448;6.650;2023-04-25T06:15:59;12.88;;;5.15;;
22024;SDS011;11176;51.448;6.650;2023-04-25T06:18:26;18.50;;;5.43;;
22024;SDS011;11176;51.448;6.650;2023-04-25T06:20:52;16.38;;;5.22;;
22024;SDS011;11176;51.448;6.650;2023-04-25T06:23:19;14.15;;;5.00;;
22024;SDS011;11176;51.448;6.650;2023-04-25T06:26:00;18.88;;;5.65;;
22024;SDS011;11176;51.448;6.650;2023-04-25T06:28:27;15.35;;;5.22;;
22024;SDS011;11176;51.448;6.650;2023-04-25T06:30:54;12.60;;;4.88;;
22024;SDS011;11176;51.448;6.650;2023-04-25T06:33:21;12.50;;;5.10;;
22024;SDS011;11176;51.448;6.650;2023-04-25T06:35:48;22.50;;;5.05;;
22024;SDS011;11176;51.448;6.650;2023-04-25T06:38:18;9.57;;;4.63;;
22024;SDS011;11176;51.448;6.650;2023-04-25T06:40:49;11.48;;;4.32;;
22024;SDS011;11176;51.448;6.650;2023-04-25T06:43:16;16.45;;;5.45;;
22024;SDS011;11176;51.448;6.650;2023-04-25T06:46:04;13.88;;;4.72;;
22024;SDS011;11176;51.448;6.650;2023-04-25T06:48:34;12.52;;;4.68;;
22024;SDS011;11176;51.448;6.650;2023-04-25T06:51:00;15.98;;;4.68;;
22024;SDS011;11176;51.448;6.650;2023-04-25T06:53:27;15.27;;;4.88;;
22024;SDS011;11176;51.448;6.650;2023-04-25T06:55:58;11.85;;;4.50;;
22024;SDS011;11176;51.448;6.650;2023-04-25T06:58:29;16.60;;;5.00;;
22024;SDS011;11176;51.448;6.650;2023-04-25T07:01:15;13.95;;;4.28;;
22024;SDS011;11176;51.448;6.650;2023-04-25T07:03:42;14.80;;;4.45;;
22024;SDS011;11176;51.448;6.650;2023-04-25T07:06:14;15.98;;;4.00;;
22024;SDS011;11176;51.448;6.650;2023-04-25T07:08:41;13.90;;;4.80;;
22024;SDS011;11176;51.448;6.650;2023-04-25T07:11:08;14.73;;;4.60;;
22024;SDS011;11176;51.448;6.650;2023-04-25T07:13:35;16.35;;;4.53;;
22024;SDS011;11176;51.448;6.650;2023-04-25T07:16:03;15.27;;;4.45;;
22024;SDS011;11176;51.448;6.650;2023-04-25T07:18:32;18.20;;;4.65;;
22024;SDS011;11176;51.448;6.650;2023-04-25T07:20:59;13.43;;;4.03;;
22024;SDS011;11176;51.448;6.650;2023-04-25T07:23:26;15.00;;;4.20;;
22024;SDS011;11176;51.448;6.650;2023-04-25T07:25:53;12.85;;;3.38;;
22024;SDS011;11176;51.448;6.650;2023-04-25T07:28:23;18.20;;;3.67;;
22024;SDS011;11176;51.448;6.650;2023-04-25T07:30:49;10.05;;;3.45;;
22024;SDS011;11176;51.448;6.650;2023-04-25T07:33:16;11.35;;;3.55;;
22024;SDS011;11176;51.448;6.650;2023-04-25T07:35:43;10.45;;;3.47;;
22024;SDS011;11176;51.448;6.650;2023-04-25T07:38:12;13.68;;;4.05;;
22024;SDS011;11176;51.448;6.650;2023-04-25T07:40:39;13.90;;;3.55;;
22024;SDS011;11176;51.448;6.650;2023-04-25T07:43:07;10.88;;;3.47;;
22024;SDS011;11176;51.448;6.650;2023-04-25T07:45:45;9.75;;;3.30;;
22024;SDS011;11176;51.448;6.650;2023-04-25T07:48:18;8.98;;;3.47;;
22024;SDS011;11176;51.448;6.650;2023-04-25T07:50:46;10.18;;;3.67;;
22024;SDS011;11176;51.448;6.650;2023-04-25T07:53:13;11.10;;;3.42;;
22024;SDS011;11176;51.448;6.650;2023-04-25T07:55:48;9.63;;;3.08;;
22024;SDS011;11176;51.448;6.650;2023-04-25T07:58:16;15.57;;;3.67;;
22024;SDS011;11176;51.448;6.650;2023-04-25T08:03:28;9.68;;;3.63;;
22024;SDS011;11176;51.448;6.650;2023-04-25T08:05:57;15.73;;;3.78;;
22024;SDS011;11176;51.448;6.650;2023-04-25T08:08:27;11.25;;;3.25;;
22024;SDS011;11176;51.448;6.650;2023-04-25T08:10:54;13.38;;;3.70;;
22024;SDS011;11176;51.448;6.650;2023-04-25T08:13:20;12.10;;;2.90;;
22024;SDS011;11176;51.448;6.650;2023-04-25T08:15:47;10.85;;;3.60;;
22024;SDS011;11176;51.448;6.650;2023-04-25T08:18:13;11.20;;;2.88;;
22024;SDS011;11176;51.448;6.650;2023-04-25T08:20:44;14.70;;;3.30;;
22024;SDS011;11176;51.448;6.650;2023-04-25T08:23:12;9.05;;;2.67;;
22024;SDS011;11176;51.448;6.650;2023-04-25T08:25:49;9.30;;;2.88;;
22024;SDS011;11176;51.448;6.650;2023-04-25T08:28:18;10.32;;;3.05;;
22024;SDS011;11176;51.448;6.650;2023-04-25T08:30:45;13.40;;;2.97;;
22024;SDS011;11176;51.448;6.650;2023-04-25T08:33:14;12.73;;;2.78;;
22024;SDS011;11176;51.448;6.650;2023-04-25T08:35:59;9.77;;;2.67;;
22024;SDS011;11176;51.448;6.650;2023-04-25T08:38:27;10.88;;;2.53;;
22024;SDS011;11176;51.448;6.650;2023-04-25T08:40:54;9.35;;;2.40;;
22024;SDS011;11176;51.448;6.650;2023-04-25T08:43:22;12.15;;;2.38;;
22024;SDS011;11176;51.448;6.650;2023-04-25T08:45:49;7.10;;;2.00;;
22024;SDS011;11176;51.448;6.650;2023-04-25T08:48:33;8.00;;;2.63;;
22024;SDS011;11176;51.448;6.650;2023-04-25T08:51:03;9.82;;;2.35;;
22024;SDS011;11176;51.448;6.650;2023-04-25T08:53:38;11.13;;;2.78;;
22024;SDS011;11176;51.448;6.650;2023-04-25T08:56:08;9.77;;;1.92;;
22024;SDS011;11176;51.448;6.650;2023-04-25T08:58:39;10.65;;;2.40;;
22024;SDS011;11176;51.448;6.650;2023-04-25T09:01:06;9.18;;;2.15;;
22024;SDS011;11176;51.448;6.650;2023-04-25T09:03:41;11.90;;;2.58;;
22024;SDS011;11176;51.448;6.650;2023-04-25T09:06:09;6.38;;;1.85;;
22024;SDS011;11176;51.448;6.650;2023-04-25T09:08:37;7.07;;;2.00;;
22024;SDS011;11176;51.448;6.650;2023-04-25T09:11:06;8.43;;;2.10;;
22024;SDS011;11176;51.448;6.650;2023-04-25T09:13:33;10.88;;;2.00;;
22024;SDS011;11176;51.448;6.650;2023-04-25T09:16:16;7.32;;;2.38;;
22024;SDS011;11176;51.448;6.650;2023-04-25T09:19:26;9.43;;;2.03;;
22024;SDS011;11176;51.448;6.650;2023-04-25T09:22:16;11.82;;;2.53;;
22024;SDS011;11176;51.448;6.650;2023-04-25T09:24:44;7.65;;;2.10;;
22024;SDS011;11176;51.448;6.650;2023-04-25T09:27:19;7.57;;;1.90;;
22024;SDS011;11176;51.448;6.650;2023-04-25T09:29:57;8.02;;;2.30;;
22024;SDS011;11176;51.448;6.650;2023-04-25T09:32:31;9.52;;;1.80;;
22024;SDS011;11176;51.448;6.650;2023-04-25T09:34:59;9.13;;;1.67;;
22024;SDS011;11176;51.448;6.650;2023-04-25T09:37:28;5.25;;;1.52;;
22024;SDS011;11176;51.448;6.650;2023-04-25T09:40:16;4.93;;;1.40;;
22024;SDS011;11176;51.448;6.650;2023-04-25T09:42:58;6.77;;;1.70;;
22024;SDS011;11176;51.448;6.650;2023-04-25T09:45:26;5.22;;;1.60;;
22024;SDS011;11176;51.448;6.650;2023-04-25T09:47:56;6.47;;;2.13;;
22024;SDS011;11176;51.448;6.650;2023-04-25T09:50:28;11.98;;;1.95;;
22024;SDS011;11176;51.448;6.650;2023-04-25T09:53:04;8.25;;;1.60;;
22024;SDS011;11176;51.448;6.650;2023-04-25T09:55:49;11.93;;;2.35;;
22024;SDS011;11176;51.448;6.650;2023-04-25T09:58:15;6.60;;;2.17;;
22024;SDS011;11176;51.448;6.650;2023-04-25T10:00:42;6.45;;;1.95;;
22024;SDS011;11176;51.448;6.650;2023-04-25T10:03:22;7.95;;;1.70;;
22024;SDS011;11176;51.448;6.650;2023-04-25T10:06:17;5.63;;;1.63;;
22024;SDS011;11176;51.448;6.650;2023-04-25T10:08:49;6.35;;;1.75;;
22024;SDS011;11176;51.448;6.650;2023-04-25T10:11:18;5.28;;;1.63;;
22024;SDS011;11176;51.448;6.650;2023-04-25T10:13:45;7.78;;;1.70;;
22024;SDS011;11176;51.448;6.650;2023-04-25T10:16:12;6.57;;;1.75;;
22024;SDS011;11176;51.448;6.650;2023-04-25T10:18:39;5.75;;;1.58;;
22024;SDS011;11176;51.448;6.650;2023-04-25T10:21:05;9.50;;;2.25;;
22024;SDS011;11176;51.448;6.650;2023-04-25T10:23:33;8.57;;;2.00;;
22024;SDS011;11176;51.448;6.650;2023-04-25T10:26:00;6.97;;;1.50;;
22024;SDS011;11176;51.448;6.650;2023-04-25T10:28:27;4.80;;;1.20;;
22024;SDS011;11176;51.448;6.650;2023-04-25T10:33:32;6.20;;;1.50;;
22024;SDS011;11176;51.448;6.650;2023-04-25T10:36:10;3.63;;;1.30;;
22024;SDS011;11176;51.448;6.650;2023-04-25T10:38:37;8.18;;;2.05;;
22024;SDS011;11176;51.448;6.650;2023-04-25T10:41:08;4.57;;;1.20;;
22024;SDS011;11176;51.448;6.650;2023-04-25T10:43:37;4.55;;;1.40;;
22024;SDS011;11176;51.448;6.650;2023-04-25T10:46:26;4.95;;;1.50;;
22024;SDS011;11176;51.448;6.650;2023-04-25T10:49:00;10.05;;;1.60;;
22024;SDS011;11176;51.448;6.650;2023-04-25T10:51:28;6.68;;;1.50;;
22024;SDS011;11176;51.448;6.650;2023-04-25T10:54:19;3.88;;;1.30;;
22024;SDS011;11176;51.448;6.650;2023-04-25T10:56:48;3.72;;;1.42;;
22024;SDS011;11176;51.448;6.650;2023-04-25T10:59:15;6.95;;;1.45;;
22024;SDS011;11176;51.448;6.650;2023-04-25T11:01:47;5.70;;;1.70;;
22024;SDS011;11176;51.448;6.650;2023-04-25T11:10:30;6.75;;;1.80;;
22024;SDS011;11176;51.448;6.650;2023-04-25T11:12:58;6.70;;;1.73;;
22024;SDS011;11176;51.448;6.650;2023-04-25T11:15:24;5.15;;;1.77;;
22024;SDS011;11176;51.448;6.650;2023-04-25T11:17:52;7.75;;;1.90;;
22024;SDS011;11176;51.448;6.650;2023-04-25T11:20:19;4.97;;;1.60;;
22024;SDS011;11176;51.448;6.650;2023-04-25T11:22:46;5.50;;;1.65;;
22024;SDS011;11176;51.448;6.650;2023-04-25T11:25:15;5.20;;;1.63;;
22024;SDS011;11176;51.448;6.650;2023-04-25T11:27:52;5.75;;;1.70;;
22024;SDS011;11176;51.448;6.650;2023-04-25T11:30:19;5.45;;;1.50;;
22024;SDS011;11176;51.448;6.650;2023-04-25T11:32:47;6.40;;;1.70;;
22024;SDS011;11176;51.448;6.650;2023-04-25T11:35:13;8.48;;;2.05;;
22024;SDS011;11176;51.448;6.650;2023-04-25T11:37:41;8.02;;;2.00;;
22024;SDS011;11176;51.448;6.650;2023-04-25T11:40:09;7.03;;;1.90;;
22024;SDS011;11176;51.448;6.650;2023-04-25T11:42:38;6.53;;;2.00;;
22024;SDS011;11176;51.448;6.650;2023-04-25T11:45:06;6.53;;;2.00;;
22024;SDS011;11176;51.448;6.650;2023-04-25T11:47:34;7.10;;;1.83;;
22024;SDS011;11176;51.448;6.650;2023-04-25T11:50:03;9.35;;;1.67;;
22024;SDS011;11176;51.448;6.650;2023-04-25T11:52:35;5.68;;;2.05;;
22024;SDS011;11176;51.448;6.650;2023-04-25T11:55:22;8.38;;;2.28;;
22024;SDS011;11176;51.448;6.650;2023-04-25T11:57:49;4.88;;;1.63;;
22024;SDS011;11176;51.448;6.650;2023-04-25T12:00:17;6.05;;;1.90;;
22024;SDS011;11176;51.448;6.650;2023-04-25T12:02:46;9.10;;;2.40;;
22024;SDS011;11176;51.448;6.650;2023-04-25T12:05:17;7.72;;;2.20;;
22024;SDS011;11176;51.448;6.650;2023-04-25T12:07:47;8.88;;;2.33;;
22024;SDS011;11176;51.448;6.650;2023-04-25T12:10:15;9.18;;;2.03;;
22024;SDS011;11176;51.448;6.650;2023-04-25T12:12:43;6.10;;;2.03;;
22024;SDS011;11176;51.448;6.650;2023-04-25T12:15:23;5.70;;;1.77;;
22024;SDS011;11176;51.448;6.650;2023-04-25T12:17:52;7.47;;;1.92;;
22024;SDS011;11176;51.448;6.650;2023-04-25T12:20:21;4.05;;;1.55;;
22024;SDS011;11176;51.448;6.650;2023-04-25T12:22:51;5.82;;;1.63;;
22024;SDS011;11176;51.448;6.650;2023-04-25T12:25:34;9.68;;;2.22;;
22024;SDS011;11176;51.448;6.650;2023-04-25T12:28:15;5.35;;;1.77;;
22024;SDS011;11176;51.448;6.650;2023-04-25T12:33:21;5.13;;;1.73;;
22024;SDS011;11176;51.448;6.650;2023-04-25T12:35:48;5.20;;;1.50;;
22024;SDS011;11176;51.448;6.650;2023-04-25T12:38:24;6.35;;;1.92;;
22024;SDS011;11176;51.448;6.650;2023-04-25T12:40:55;9.77;;;2.10;;
22024;SDS011;11176;51.448;6.650;2023-04-25T12:43:22;5.78;;;1.63;;
22024;SDS011;11176;51.448;6.650;2023-04-25T12:45:52;6.50;;;1.70;;
22024;SDS011;11176;51.448;6.650;2023-04-25T12:48:20;6.25;;;1.88;;
22024;SDS011;11176;51.448;6.650;2023-04-25T12:50:47;7.82;;;1.75;;
22024;SDS011;11176;51.448;6.650;2023-04-25T12:53:16;5.10;;;1.60;;
22024;SDS011;11176;51.448;6.650;2023-04-25T12:55:43;5.10;;;1.40;;
22024;SDS011;11176;51.448;6.650;2023-04-25T12:58:12;8.13;;;1.45;;
22024;SDS011;11176;51.448;6.650;2023-04-25T13:00:43;6.97;;;1.52;;
22024;SDS011;11176;51.448;6.650;2023-04-25T13:03:11;3.58;;;1.00;;
22024;SDS011;11176;51.448;6.650;2023-04-25T13:05:39;5.35;;;1.10;;
22024;SDS011;11176;51.448;6.650;2023-04-25T13:08:06;4.05;;;1.30;;
22024;SDS011;11176;51.448;6.650;2023-04-25T13:10:33;5.35;;;1.30;;
22024;SDS011;11176;51.448;6.650;2023-04-25T13:13:00;5.47;;;1.13;;
22024;SDS011;11176;51.448;6.650;2023-04-25T13:15:27;6.28;;;1.55;;
22024;SDS011;11176;51.448;6.650;2023-04-25T13:17:54;7.60;;;1.58;;
22024;SDS011;11176;51.448;6.650;2023-04-25T13:20:21;6.38;;;1.60;;
22024;SDS011;11176;51.448;6.650;2023-04-25T13:22:48;3.28;;;1.00;;
22024;SDS011;11176;51.448;6.650;2023-04-25T13:25:15;7.15;;;1.70;;
22024;SDS011;11176;51.448;6.650;2023-04-25T13:27:42;7.90;;;1.60;;
22024;SDS011;11176;51.448;6.650;2023-04-25T13:30:10;4.47;;;1.17;;
22024;SDS011;11176;51.448;6.650;2023-04-25T13:32:37;4.90;;;1.40;;
22024;SDS011;11176;51.448;6.650;2023-04-25T13:35:08;3.88;;;1.08;;
22024;SDS011;11176;51.448;6.650;2023-04-25T13:37:36;4.95;;;1.20;;
22024;SDS011;11176;51.448;6.650;2023-04-25T13:40:05;7.50;;;1.40;;
22024;SDS011;11176;51.448;6.650;2023-04-25T13:42:35;5.05;;;1.42;;
22024;SDS011;11176;51.448;6.650;2023-04-25T13:45:03;4.72;;;1.23;;
22024;SDS011;11176;51.448;6.650;2023-04-25T13:47:29;4.95;;;1.20;;
22024;SDS011;11176;51.448;6.650;2023-04-25T13:49:57;6.78;;;1.30;;
22024;SDS011;11176;51.448;6.650;2023-04-25T13:52:23;2.85;;;1.00;;
22024;SDS011;11176;51.448;6.650;2023-04-25T13:54:53;5.63;;;1.15;;
22024;SDS011;11176;51.448;6.650;2023-04-25T13:57:19;6.82;;;1.55;;
22024;SDS011;11176;51.448;6.650;2023-04-25T13:59:46;7.35;;;1.58;;
22024;SDS011;11176;51.448;6.650;2023-04-25T14:02:12;6.55;;;1.40;;
22024;SDS011;11176;51.448;6.650;2023-04-25T14:04:39;4.90;;;1.23;;
22024;SDS011;11176;51.448;6.650;2023-04-25T14:07:06;5.03;;;1.42;;
22024;SDS011;11176;51.448;6.650;2023-04-25T14:09:33;7.88;;;1.20;;
22024;SDS011;11176;51.448;6.650;2023-04-25T14:11:59;4.47;;;1.20;;
22024;SDS011;11176;51.448;6.650;2023-04-25T14:14:26;5.57;;;1.23;;
22024;SDS011;11176;51.448;6.650;2023-04-25T14:16:53;4.05;;;1.08;;
22024;SDS011;11176;51.448;6.650;2023-04-25T14:19:20;2.83;;;0.80;;
22024;SDS011;11176;51.448;6.650;2023-04-25T14:21:47;4.00;;;0.93;;
22024;SDS011;11176;51.448;6.650;2023-04-25T14:24:14;2.45;;;0.93;;
22024;SDS011;11176;51.448;6.650;2023-04-25T14:26:41;4.63;;;1.08;;
22024;SDS011;11176;51.448;6.650;2023-04-25T14:29:09;3.03;;;0.88;;
22024;SDS011;11176;51.448;6.650;2023-04-25T14:31:38;5.25;;;1.27;;
22024;SDS011;11176;51.448;6.650;2023-04-25T14:34:06;6.15;;;1.10;;
22024;SDS011;11176;51.448;6.650;2023-04-25T14:36:33;3.40;;;1.05;;
22024;SDS011;11176;51.448;6.650;2023-04-25T14:38:59;6.95;;;1.10;;
22024;SDS011;11176;51.448;6.650;2023-04-25T14:41:27;4.22;;;1.10;;
22024;SDS011;11176;51.448;6.650;2023-04-25T14:43:53;4.70;;;1.10;;
22024;SDS011;11176;51.448;6.650;2023-04-25T14:46:20;7.80;;;1.42;;
22024;SDS011;11176;51.448;6.650;2023-04-25T14:48:48;4.63;;;1.23;;
22024;SDS011;11176;51.448;6.650;2023-04-25T14:51:15;4.88;;;1.17;;
22024;SDS011;11176;51.448;6.650;2023-04-25T14:53:42;6.68;;;1.17;;
22024;SDS011;11176;51.448;6.650;2023-04-25T14:56:08;8.70;;;1.42;;
22024;SDS011;11176;51.448;6.650;2023-04-25T14:58:35;4.53;;;1.52;;
22024;SDS011;11176;51.448;6.650;2023-04-25T15:01:01;2.83;;;0.80;;
22024;SDS011;11176;51.448;6.650;2023-04-25T15:03:28;7.22;;;1.48;;
22024;SDS011;11176;51.448;6.650;2023-04-25T15:05:55;5.28;;;1.10;;
22024;SDS011;11176;51.448;6.650;2023-04-25T15:08:22;5.28;;;1.30;;
22024;SDS011;11176;51.448;6.650;2023-04-25T15:10:48;5.05;;;1.60;;
22024;SDS011;11176;51.448;6.650;2023-04-25T15:13:15;4.72;;;1.30;;
22024;SDS011;11176;51.448;6.650;2023-04-25T15:15:43;4.13;;;1.33;;
22024;SDS011;11176;51.448;6.650;2023-04-25T15:18:10;9.35;;;1.52;;